Time;durP1;ratioP1;P1;durP2;ratioP2;P2;SDS_P1;SDS_P2;PMS_P1;PMS_P2;Temp;Humidity;BMP_temperature;BMP_pressure;BME280_temperature;BME280_humidity;BME280_pressure;Samples;Min_cycle;Max_cycle;Signal;HPM_P1;HPM_P2
2022/09/09 00:00:15;;;;;;;5.20;1.43;;;19.60;68.80;;;;;;5024598;28;20480;-73
2022/09/09 00:02:50;;;;;;;4.73;1.30;;;19.60;68.90;;;;;;5034093;28;21919;-73
2022/09/09 00:05:26;;;;;;;4.77;1.50;;;19.60;69.00;;;;;;5034938;28;20491;-73
2022/09/09 00:07:58;;;;;;;5.53;1.37;;;19.60;69.10;;;;;;5035073;28;20515;-73
2022/09/09 00:10:31;;;;;;;5.40;1.70;;;19.50;69.20;;;;;;5037918;28;20495;-73
2022/09/09 00:13:08;;;;;;;4.90;1.33;;;19.50;69.40;;;;;;5036282;28;20477;-73
2022/09/09 00:15:42;;;;;;;5.00;1.60;;;19.40;69.70;;;;;;5038883;28;20468;-73
2022/09/09 00:18:18;;;;;;;6.30;1.60;;;19.40;69.80;;;;;;5027701;28;21224;-73
2022/09/09 00:20:57;;;;;;;6.57;1.40;;;19.40;70.10;;;;;;5021494;28;21379;-73
2022/09/09 00:23:28;;;;;;;5.97;1.20;;;19.40;70.30;;;;;;5034937;28;20461;-73
2022/09/09 00:26:05;;;;;;;4.13;1.20;;;19.40;70.50;;;;;;5037858;28;20467;-73
2022/09/09 00:28:40;;;;;;;5.57;1.40;;;19.40;70.60;;;;;;5036335;28;20487;-73
2022/09/09 00:31:13;;;;;;;3.60;1.07;;;19.40;70.70;;;;;;5039281;28;20471;-74
2022/09/09 00:33:44;;;;;;;5.13;1.47;;;19.40;70.90;;;;;;5021341;28;20970;-73
2022/09/09 00:36:17;;;;;;;4.37;1.00;;;19.40;70.90;;;;;;5022409;28;20815;-73
2022/09/09 00:38:51;;;;;;;4.23;1.20;;;19.40;71.00;;;;;;5034509;28;20453;-73
2022/09/09 00:41:27;;;;;;;6.63;2.10;;;19.40;71.00;;;;;;5017122;28;20560;-73
2022/09/09 00:43:59;;;;;;;5.43;1.20;;;19.30;71.10;;;;;;5034466;28;20491;-73
2022/09/09 00:46:57;;;;;;;5.00;1.40;;;19.30;71.10;;;;;;5019178;28;20478;-73
2022/09/09 00:49:38;;;;;;;3.80;1.00;;;19.20;71.20;;;;;;5022938;28;20491;-73
2022/09/09 00:52:23;;;;;;;4.70;1.20;;;19.20;71.40;;;;;;5038788;28;20556;-73
2022/09/09 00:55:01;;;;;;;4.57;1.30;;;19.20;71.50;;;;;;5038168;28;20450;-73
2022/09/09 00:57:31;;;;;;;3.70;0.97;;;19.20;71.60;;;;;;5023840;28;20472;-73
2022/09/09 01:00:18;;;;;;;4.70;1.30;;;19.10;71.70;;;;;;5019198;28;20467;-73
2022/09/09 01:02:56;;;;;;;4.50;1.00;;;19.10;71.80;;;;;;5017458;28;20462;-73
2022/09/09 01:05:35;;;;;;;3.80;1.20;;;19.10;72.00;;;;;;5020413;28;20494;-73
2022/09/09 01:08:12;;;;;;;5.87;1.30;;;19.10;72.00;;;;;;5044698;28;20446;-73
2022/09/09 01:10:49;;;;;;;3.60;1.10;;;19.10;72.10;;;;;;5018145;28;20480;-73
2022/09/09 01:13:24;;;;;;;7.40;1.30;;;19.10;72.00;;;;;;5016434;28;20460;-73
2022/09/09 01:15:54;;;;;;;8.37;1.30;;;19.10;72.00;;;;;;5043439;28;20458;-73
2022/09/09 01:18:34;;;;;;;5.10;1.10;;;19.10;72.10;;;;;;5039714;28;20465;-73
2022/09/09 01:21:10;;;;;;;6.33;1.30;;;19.00;72.30;;;;;;5017348;28;20492;-73
2022/09/09 01:24:05;;;;;;;5.90;1.60;;;19.00;72.30;;;;;;5014065;28;20461;-73
2022/09/09 01:26:57;;;;;;;6.53;1.40;;;19.00;72.40;;;;;;5018576;28;20464;-73
2022/09/09 01:29:26;;;;;;;5.90;1.73;;;19.00;72.50;;;;;;5020031;28;20893;-73
2022/09/09 01:31:56;;;;;;;4.00;1.20;;;19.00;72.60;;;;;;5031851;28;20899;-73
2022/09/09 01:34:28;;;;;;;5.43;1.27;;;19.00;72.70;;;;;;5033897;28;21063;-73
2022/09/09 01:36:59;;;;;;;7.27;1.50;;;19.10;72.60;;;;;;5032366;28;20461;-73
2022/09/09 01:39:28;;;;;;;5.17;1.43;;;19.10;72.60;;;;;;5032821;28;20805;-73
2022/09/09 01:42:03;;;;;;;8.93;1.60;;;19.10;72.50;;;;;;5018927;28;20485;-73
2022/09/09 01:44:32;;;;;;;5.67;1.40;;;19.10;72.50;;;;;;5033258;28;20483;-73
2022/09/09 01:47:01;;;;;;;6.53;1.63;;;19.10;72.50;;;;;;5031097;28;20559;-73
2022/09/09 01:49:30;;;;;;;3.93;1.33;;;19.10;72.50;;;;;;5026352;28;20467;-73
2022/09/09 01:51:59;;;;;;;6.90;1.67;;;19.10;72.50;;;;;;5025291;28;21107;-73
2022/09/09 01:54:34;;;;;;;5.07;1.43;;;19.10;72.50;;;;;;5033017;28;20966;-73
2022/09/09 01:57:19;;;;;;;8.30;1.83;;;19.10;72.50;;;;;;5021499;28;20529;-73
2022/09/09 02:00:02;;;;;;;4.17;1.20;;;19.10;72.60;;;;;;5033530;28;20996;-74
2022/09/09 02:02:49;;;;;;;6.70;1.47;;;19.10;72.70;;;;;;5034510;28;20508;-73
2022/09/09 02:05:32;;;;;;;6.33;1.80;;;19.00;72.60;;;;;;5018814;28;20476;-73
2022/09/09 02:08:08;;;;;;;4.97;1.80;;;19.00;72.80;;;;;;5031202;28;20565;-73
2022/09/09 02:10:51;;;;;;;6.60;1.50;;;18.90;72.90;;;;;;5035577;28;20501;-73
2022/09/09 02:13:35;;;;;;;4.50;1.30;;;18.90;73.10;;;;;;5023044;28;20498;-73
2022/09/09 02:16:08;;;;;;;5.43;1.63;;;19.00;73.20;;;;;;5023374;28;20470;-73
2022/09/09 02:18:46;;;;;;;5.83;1.60;;;19.00;73.20;;;;;;5028086;28;20543;-73
2022/09/09 02:21:16;;;;;;;4.37;1.50;;;19.00;73.30;;;;;;5031540;28;21059;-73
2022/09/09 02:23:47;;;;;;;6.80;1.80;;;19.10;73.30;;;;;;5030924;28;20457;-73
2022/09/09 02:26:21;;;;;;;5.50;1.60;;;19.10;73.30;;;;;;5019041;28;20523;-73
2022/09/09 02:28:58;;;;;;;6.30;1.83;;;19.10;73.30;;;;;;5037590;28;20507;-73
2022/09/09 02:31:26;;;;;;;5.27;1.60;;;19.10;73.30;;;;;;5020897;28;20550;-73
2022/09/09 02:34:02;;;;;;;5.37;1.90;;;19.00;73.40;;;;;;5016643;28;20505;-73
2022/09/09 02:36:34;;;;;;;4.60;1.63;;;19.10;73.30;;;;;;5022897;28;20455;-73
2022/09/09 02:39:06;;;;;;;5.50;1.70;;;19.00;73.50;;;;;;5033801;28;20486;-73
2022/09/09 02:41:38;;;;;;;7.70;1.77;;;19.00;73.50;;;;;;5019776;28;20487;-73
2022/09/09 02:44:11;;;;;;;5.23;1.63;;;19.00;73.50;;;;;;5020588;28;20467;-73
2022/09/09 02:47:00;;;;;;;4.10;1.40;;;18.90;73.50;;;;;;5030854;28;20529;-73
2022/09/09 02:49:36;;;;;;;9.80;1.73;;;18.90;73.60;;;;;;5029522;28;20462;-73
2022/09/09 02:52:07;;;;;;;5.53;1.87;;;18.90;73.60;;;;;;5017653;28;21184;-73
2022/09/09 02:54:39;;;;;;;6.83;1.63;;;18.90;73.70;;;;;;5024611;28;20752;-73
2022/09/09 02:57:15;;;;;;;6.90;1.93;;;18.90;73.70;;;;;;5019439;28;20855;-73
2022/09/09 02:59:48;;;;;;;6.83;1.90;;;18.90;73.80;;;;;;5012568;28;20499;-73
2022/09/09 03:02:16;;;;;;;6.07;1.60;;;18.90;73.80;;;;;;5036881;28;20972;-73
2022/09/09 03:04:50;;;;;;;5.73;1.73;;;18.90;73.80;;;;;;5024593;28;20470;-73
2022/09/09 03:07:19;;;;;;;6.83;1.80;;;18.90;73.80;;;;;;5017732;28;20487;-73
2022/09/09 03:09:49;;;;;;;6.97;2.13;;;18.80;73.80;;;;;;5022637;28;20473;-73
2022/09/09 03:12:17;;;;;;;4.80;1.53;;;18.80;73.90;;;;;;5039631;28;20471;-73
2022/09/09 03:14:47;;;;;;;5.20;1.60;;;18.80;73.90;;;;;;5039319;28;20490;-73
2022/09/09 03:17:15;;;;;;;4.60;1.90;;;18.80;73.90;;;;;;5034352;28;20460;-73
2022/09/09 03:19:52;;;;;;;4.37;1.70;;;18.80;74.00;;;;;;5038927;28;20469;-73
2022/09/09 03:22:21;;;;;;;5.70;2.33;;;18.80;74.00;;;;;;5038262;28;21145;-73
2022/09/09 03:24:49;;;;;;;9.10;1.80;;;18.80;74.10;;;;;;5019762;28;20529;-73
2022/09/09 03:27:19;;;;;;;5.73;1.90;;;18.80;74.00;;;;;;5034955;28;21292;-73
2022/09/09 03:29:50;;;;;;;8.53;1.50;;;18.80;74.10;;;;;;5040373;28;21169;-73
2022/09/09 03:32:25;;;;;;;4.90;1.57;;;18.90;74.10;;;;;;5018210;28;20522;-73
2022/09/09 03:34:54;;;;;;;6.00;1.87;;;18.90;74.10;;;;;;5036368;28;20492;-73
2022/09/09 03:37:22;;;;;;;7.80;2.00;;;18.90;74.00;;;;;;5017397;28;20695;-73
2022/09/09 03:39:52;;;;;;;8.97;2.20;;;18.90;74.00;;;;;;5025990;28;20461;-73
2022/09/09 03:42:20;;;;;;;5.03;1.77;;;18.80;74.00;;;;;;5029299;28;21201;-73
2022/09/09 03:44:52;;;;;;;8.13;1.80;;;18.80;74.20;;;;;;5019535;28;20570;-73
2022/09/09 03:47:24;;;;;;;5.63;1.80;;;18.80;74.20;;;;;;5021088;28;20490;-73
2022/09/09 03:49:56;;;;;;;5.07;1.50;;;18.80;74.20;;;;;;5019914;28;20483;-73
2022/09/09 03:52:26;;;;;;;7.73;1.80;;;18.80;74.20;;;;;;5020368;28;20466;-73
2022/09/09 03:54:56;;;;;;;5.10;1.40;;;18.80;74.30;;;;;;5024772;28;20557;-73
2022/09/09 03:57:24;;;;;;;5.67;1.80;;;18.80;74.30;;;;;;5036259;28;20532;-73
2022/09/09 03:59:54;;;;;;;5.37;1.40;;;18.70;74.40;;;;;;4998961;28;1072791;-73
2022/09/09 04:02:22;;;;;;;7.70;1.77;;;18.70;74.40;;;;;;5036843;28;20455;-73
2022/09/09 04:04:50;;;;;;;7.20;2.07;;;18.70;74.50;;;;;;5026875;28;20450;-73
2022/09/09 04:07:18;;;;;;;4.60;1.80;;;18.70;74.50;;;;;;5020525;28;20480;-73
2022/09/09 04:09:46;;;;;;;6.30;2.03;;;18.70;74.50;;;;;;5019463;28;20463;-73
2022/09/09 04:12:16;;;;;;;6.70;1.83;;;18.70;74.50;;;;;;5028502;28;20483;-73
2022/09/09 04:14:44;;;;;;;4.67;1.67;;;18.70;74.60;;;;;;5020852;28;20467;-73
2022/09/09 04:17:13;;;;;;;6.17;2.00;;;18.70;74.60;;;;;;5041137;28;20552;-73
2022/09/09 04:19:42;;;;;;;4.70;1.90;;;18.60;74.60;;;;;;5022392;28;20464;-73
2022/09/09 04:22:11;;;;;;;6.60;1.90;;;18.60;74.60;;;;;;5022221;28;20490;-73
2022/09/09 04:24:39;;;;;;;7.13;2.10;;;18.60;74.60;;;;;;5022862;28;20479;-73
2022/09/09 04:27:07;;;;;;;7.43;2.47;;;18.60;74.60;;;;;;5026053;28;20583;-73
2022/09/09 04:29:37;;;;;;;5.43;1.63;;;18.60;74.60;;;;;;5041534;28;20460;-73
2022/09/09 04:32:05;;;;;;;8.10;1.47;;;18.60;74.70;;;;;;5020320;28;21011;-73
2022/09/09 04:34:34;;;;;;;6.20;2.17;;;18.60;74.80;;;;;;5020283;28;20521;-73
2022/09/09 04:37:03;;;;;;;5.77;1.73;;;18.60;74.70;;;;;;5028299;28;20443;-73
2022/09/09 04:39:31;;;;;;;7.50;1.80;;;18.60;74.70;;;;;;5040133;28;20884;-73
2022/09/09 04:42:00;;;;;;;7.00;1.70;;;18.70;74.60;;;;;;5017689;28;22381;-73
2022/09/09 04:44:28;;;;;;;7.87;1.87;;;18.70;74.50;;;;;;5033646;28;20468;-73
2022/09/09 04:46:56;;;;;;;7.00;1.70;;;18.70;74.50;;;;;;5016582;28;20476;-73
2022/09/09 04:49:25;;;;;;;5.07;2.07;;;18.70;74.40;;;;;;5020325;28;20546;-73
2022/09/09 04:51:56;;;;;;;7.13;1.60;;;18.70;74.30;;;;;;5027287;28;20491;-73
2022/09/09 04:54:25;;;;;;;6.13;2.10;;;18.70;74.30;;;;;;5025889;28;20868;-73
2022/09/09 04:56:53;;;;;;;7.40;1.40;;;18.70;74.20;;;;;;5022547;28;20463;-73
2022/09/09 04:59:21;;;;;;;8.43;2.03;;;18.70;74.20;;;;;;5024975;28;20479;-73
2022/09/09 05:01:54;;;;;;;4.80;1.33;;;18.70;74.20;;;;;;5018567;28;21086;-73
2022/09/09 05:04:23;;;;;;;4.60;1.57;;;18.60;74.20;;;;;;5018778;28;20455;-73
2022/09/09 05:06:51;;;;;;;6.93;1.80;;;18.60;74.10;;;;;;5018936;28;20480;-73
2022/09/09 05:09:20;;;;;;;5.17;1.70;;;18.60;74.20;;;;;;5038253;28;21057;-73
2022/09/09 05:11:48;;;;;;;6.43;1.63;;;18.60;74.30;;;;;;5036257;28;20778;-73
2022/09/09 05:14:30;;;;;;;5.90;1.60;;;18.70;74.20;;;;;;5037827;28;20457;-73
2022/09/09 05:16:59;;;;;;;6.20;1.53;;;18.70;74.20;;;;;;5026815;28;20455;-73
2022/09/09 05:19:28;;;;;;;4.40;1.60;;;18.70;74.20;;;;;;5020606;28;20460;-73
2022/09/09 05:21:56;;;;;;;5.43;1.70;;;18.70;74.20;;;;;;5015986;28;20490;-73
2022/09/09 05:24:33;;;;;;;9.77;1.90;;;18.80;74.20;;;;;;5016384;28;20594;-73
2022/09/09 05:27:05;;;;;;;7.27;1.77;;;18.80;74.30;;;;;;5021995;28;20476;-73
2022/09/09 05:29:34;;;;;;;5.77;1.70;;;18.80;74.20;;;;;;5026640;28;20514;-73
2022/09/09 05:32:04;;;;;;;4.87;1.40;;;18.80;74.20;;;;;;5024156;28;20479;-73
2022/09/09 05:34:33;;;;;;;7.10;1.93;;;18.80;74.20;;;;;;5042607;28;20466;-73
2022/09/09 05:37:01;;;;;;;7.50;1.80;;;18.90;74.20;;;;;;5023714;28;20575;-73
2022/09/09 05:39:29;;;;;;;5.00;1.53;;;18.90;74.20;;;;;;5035257;28;20467;-73
2022/09/09 05:41:58;;;;;;;5.77;1.40;;;18.90;74.20;;;;;;5016806;28;20510;-73
2022/09/09 05:44:27;;;;;;;5.57;2.53;;;18.90;74.20;;;;;;5036187;28;20554;-73
2022/09/09 05:46:55;;;;;;;7.80;1.53;;;18.90;74.20;;;;;;5039574;28;20600;-73
2022/09/09 05:49:24;;;;;;;6.97;1.90;;;18.90;74.20;;;;;;5021815;28;20611;-73
2022/09/09 05:51:52;;;;;;;6.40;2.00;;;18.90;74.20;;;;;;5016133;28;20484;-73
2022/09/09 05:54:21;;;;;;;8.30;1.63;;;18.90;74.10;;;;;;5034105;28;21261;-73
2022/09/09 05:56:53;;;;;;;4.33;1.17;;;18.90;74.10;;;;;;5035260;28;20908;-73
2022/09/09 05:59:23;;;;;;;5.33;1.50;;;18.90;74.20;;;;;;5034193;28;20478;-73
2022/09/09 06:01:54;;;;;;;5.87;1.40;;;18.90;74.30;;;;;;5019903;28;20487;-73
2022/09/09 06:04:27;;;;;;;4.40;1.20;;;18.90;74.20;;;;;;5018928;28;20530;-73
2022/09/09 06:06:55;;;;;;;5.33;1.13;;;18.80;74.20;;;;;;5033941;28;20570;-73
2022/09/09 06:09:23;;;;;;;4.73;1.43;;;18.80;74.20;;;;;;5034916;28;20551;-72
2022/09/09 06:11:51;;;;;;;3.97;1.30;;;18.80;74.20;;;;;;5029188;28;20998;-73
2022/09/09 06:14:22;;;;;;;4.47;1.40;;;18.80;74.30;;;;;;5026867;28;20574;-73
2022/09/09 06:16:52;;;;;;;4.10;1.37;;;18.80;74.30;;;;;;5020999;28;20463;-73
2022/09/09 06:19:26;;;;;;;4.90;1.30;;;18.80;74.40;;;;;;5027898;28;20467;-73
2022/09/09 06:21:58;;;;;;;6.00;1.10;;;18.80;74.40;;;;;;5033511;28;20485;-73
2022/09/09 06:24:30;;;;;;;5.00;1.17;;;18.80;74.40;;;;;;5021537;28;20637;-72
2022/09/09 06:26:58;;;;;;;3.87;1.03;;;18.80;74.40;;;;;;5033749;28;20490;-73
2022/09/09 06:29:31;;;;;;;3.57;1.10;;;18.90;74.30;;;;;;5031517;28;20544;-73
2022/09/09 06:32:00;;;;;;;5.50;1.13;;;18.80;74.30;;;;;;5016651;28;20488;-73
2022/09/09 06:34:28;;;;;;;4.70;1.20;;;18.80;74.30;;;;;;5036350;28;20469;-73
2022/09/09 06:36:59;;;;;;;5.87;1.33;;;18.90;74.40;;;;;;5024201;28;20457;-73
2022/09/09 06:39:33;;;;;;;4.00;1.30;;;18.90;74.40;;;;;;5022000;28;20459;-73
2022/09/09 06:42:02;;;;;;;4.10;0.97;;;18.90;74.30;;;;;;5026391;28;20559;-73
2022/09/09 06:44:50;;;;;;;5.23;1.40;;;19.00;74.30;;;;;;5036006;28;20462;-73
2022/09/09 06:47:34;;;;;;;4.10;1.20;;;19.00;74.30;;;;;;5020600;28;20574;-73
2022/09/09 06:50:05;;;;;;;4.50;1.37;;;19.00;74.20;;;;;;5020353;28;20478;-73
2022/09/09 06:52:34;;;;;;;7.00;1.93;;;19.10;74.20;;;;;;5022681;28;20484;-73
2022/09/09 06:55:03;;;;;;;5.63;1.00;;;19.20;74.20;;;;;;5024916;28;20449;-73
2022/09/09 06:57:32;;;;;;;3.10;0.73;;;19.20;74.20;;;;;;5036817;28;20459;-73
2022/09/09 07:00:10;;;;;;;3.97;1.10;;;19.30;74.20;;;;;;5038295;28;21246;-73
2022/09/09 07:02:39;;;;;;;4.23;1.00;;;19.30;74.20;;;;;;5017175;28;20464;-73
2022/09/09 07:05:09;;;;;;;3.83;0.90;;;19.40;74.00;;;;;;5033391;28;20627;-73
2022/09/09 07:07:39;;;;;;;6.03;1.30;;;19.40;74.00;;;;;;5027257;28;20580;-74
2022/09/09 07:10:09;;;;;;;6.13;1.27;;;19.40;74.00;;;;;;5033637;28;20846;-73
2022/09/09 07:12:38;;;;;;;4.37;1.00;;;19.50;74.00;;;;;;5018443;28;20571;-72
2022/09/09 07:15:11;;;;;;;4.27;0.77;;;19.50;73.90;;;;;;5022991;28;20497;-72
2022/09/09 07:17:43;;;;;;;9.53;1.63;;;19.50;73.90;;;;;;5022136;28;20513;-72
2022/09/09 07:20:12;;;;;;;4.23;1.03;;;19.60;73.90;;;;;;5023069;28;20540;-73
2022/09/09 07:22:40;;;;;;;5.43;0.97;;;19.60;73.90;;;;;;5019162;28;20475;-72
2022/09/09 07:25:10;;;;;;;5.03;1.03;;;19.60;73.80;;;;;;5016878;28;20538;-72
2022/09/09 07:27:38;;;;;;;4.03;1.00;;;19.70;73.80;;;;;;5032315;28;20481;-72
2022/09/09 07:30:07;;;;;;;4.43;1.00;;;19.70;73.80;;;;;;5017537;28;20498;-72
2022/09/09 07:32:37;;;;;;;4.50;1.13;;;19.70;73.80;;;;;;5019818;28;21051;-72
2022/09/09 07:35:07;;;;;;;4.43;0.93;;;19.80;73.80;;;;;;5034379;28;21236;-73
2022/09/09 07:37:37;;;;;;;4.00;1.03;;;19.80;73.70;;;;;;5032146;28;21040;-72
2022/09/09 07:40:06;;;;;;;8.23;1.43;;;19.90;73.60;;;;;;5018125;28;20518;-72
2022/09/09 07:42:35;;;;;;;6.10;1.30;;;19.90;73.60;;;;;;5030606;28;21128;-72
2022/09/09 07:45:05;;;;;;;7.17;1.23;;;19.90;73.70;;;;;;5016185;28;20460;-73
2022/09/09 07:47:33;;;;;;;4.50;1.07;;;20.00;73.70;;;;;;5015367;28;20467;-72
2022/09/09 07:50:04;;;;;;;7.47;1.17;;;20.00;73.70;;;;;;5031564;28;20461;-72
2022/09/09 07:52:34;;;;;;;5.17;1.00;;;20.10;73.70;;;;;;5031074;28;20480;-72
2022/09/09 07:55:05;;;;;;;6.20;1.37;;;20.10;73.60;;;;;;5014363;28;21617;-72
2022/09/09 07:57:33;;;;;;;6.30;1.33;;;20.10;73.50;;;;;;5016881;28;20592;-72
2022/09/09 08:00:03;;;;;;;8.33;1.30;;;20.10;73.50;;;;;;5017939;28;20578;-72
2022/09/09 08:02:39;;;;;;;4.80;0.87;;;20.10;73.50;;;;;;5033085;28;20468;-72
2022/09/09 08:05:09;;;;;;;4.97;1.20;;;20.20;73.50;;;;;;5034255;28;20453;-72
2022/09/09 08:07:40;;;;;;;5.70;1.27;;;20.20;73.60;;;;;;5018141;28;20604;-73
2022/09/09 08:10:08;;;;;;;5.40;1.37;;;20.20;73.50;;;;;;5023781;28;20473;-72
2022/09/09 08:12:38;;;;;;;7.43;1.23;;;20.30;73.30;;;;;;5035811;28;20473;-72
2022/09/09 08:15:15;;;;;;;5.20;0.90;;;20.30;73.30;;;;;;5016184;28;20458;-72
2022/09/09 08:17:44;;;;;;;4.63;1.10;;;20.30;73.30;;;;;;5020800;28;20468;-72
2022/09/09 08:20:15;;;;;;;8.07;1.37;;;20.30;73.30;;;;;;5021371;28;21303;-72
2022/09/09 08:22:43;;;;;;;5.30;1.20;;;20.40;73.30;;;;;;5035175;28;20466;-72
2022/09/09 08:25:11;;;;;;;5.30;1.30;;;20.50;73.20;;;;;;5034575;28;20462;-72
2022/09/09 08:27:39;;;;;;;6.93;1.20;;;20.50;73.20;;;;;;5034346;28;21503;-72
2022/09/09 08:30:09;;;;;;;7.67;1.80;;;20.60;73.20;;;;;;5017861;28;20468;-72
2022/09/09 08:32:36;;;;;;;6.07;1.43;;;20.70;73.10;;;;;;5016665;28;20544;-72
2022/09/09 08:35:08;;;;;;;5.90;1.03;;;20.70;73.30;;;;;;5016138;28;20575;-72
2022/09/09 08:37:38;;;;;;;5.53;1.37;;;20.80;73.10;;;;;;5023300;28;20468;-72
2022/09/09 08:40:17;;;;;;;5.90;1.40;;;20.80;73.00;;;;;;5033870;28;20553;-72
2022/09/09 08:42:50;;;;;;;6.07;1.30;;;20.90;72.80;;;;;;5016423;28;20477;-72
2022/09/09 08:45:26;;;;;;;8.23;1.40;;;20.90;72.90;;;;;;5034930;28;20557;-73
2022/09/09 08:48:06;;;;;;;8.20;1.40;;;20.90;72.80;;;;;;5025749;28;20469;-73
2022/09/09 08:50:38;;;;;;;6.83;1.40;;;20.90;72.70;;;;;;5034072;28;20495;-74
2022/09/09 08:53:21;;;;;;;5.20;1.40;;;20.90;72.60;;;;;;5036140;28;20472;-73
2022/09/09 08:55:54;;;;;;;7.23;1.23;;;21.00;72.70;;;;;;5021338;28;20502;-74
2022/09/09 08:58:44;;;;;;;5.00;1.00;;;21.00;72.50;;;;;;5030954;28;20470;-73
2022/09/09 09:01:44;;;;;;;5.60;1.47;;;21.10;72.20;;;;;;5026191;28;20497;-74
2022/09/09 09:04:34;;;;;;;5.60;1.60;;;21.10;72.00;;;;;;5017059;28;20535;-74
2022/09/09 09:07:14;;;;;;;5.43;1.80;;;21.10;72.00;;;;;;5022679;28;20541;-73
2022/09/09 09:09:53;;;;;;;6.10;1.50;;;21.10;72.10;;;;;;5024831;28;20489;-74
2022/09/09 09:12:24;;;;;;;8.07;1.53;;;21.10;72.10;;;;;;5021080;28;20873;-74
2022/09/09 09:14:58;;;;;;;8.10;1.23;;;21.20;72.10;;;;;;5034997;28;20466;-73
2022/09/09 09:17:31;;;;;;;5.13;1.37;;;21.20;72.00;;;;;;5032893;28;20474;-73
2022/09/09 09:20:00;;;;;;;5.57;1.30;;;21.30;71.80;;;;;;5034773;28;20474;-73
2022/09/09 09:22:36;;;;;;;4.90;1.20;;;21.30;71.60;;;;;;5022455;28;20865;-73
2022/09/09 09:25:17;;;;;;;5.20;1.27;;;21.30;71.50;;;;;;5019136;28;20471;-73
2022/09/09 09:27:54;;;;;;;7.93;2.00;;;21.40;71.50;;;;;;5037101;28;20469;-73
2022/09/09 09:30:26;;;;;;;7.23;1.60;;;21.40;71.40;;;;;;5024467;28;20531;-74
2022/09/09 09:33:12;;;;;;;5.40;1.50;;;21.40;71.30;;;;;;5035733;28;21284;-73
2022/09/09 09:35:41;;;;;;;8.63;1.80;;;21.50;71.20;;;;;;5022895;28;20464;-73
2022/09/09 09:38:18;;;;;;;6.43;1.27;;;21.50;71.30;;;;;;5025810;28;20486;-74
2022/09/09 09:41:08;;;;;;;5.60;1.50;;;21.60;71.10;;;;;;5018037;28;20492;-73
2022/09/09 09:43:40;;;;;;;5.37;1.40;;;21.70;70.60;;;;;;5032508;28;20463;-73
2022/09/09 09:46:23;;;;;;;8.80;1.63;;;21.70;70.30;;;;;;5033757;28;22957;-73
2022/09/09 09:48:58;;;;;;;7.40;1.70;;;21.80;69.80;;;;;;5013684;28;20477;-73
2022/09/09 09:51:29;;;;;;;11.57;1.80;;;21.80;69.90;;;;;;5017354;28;20563;-74
2022/09/09 09:54:09;;;;;;;7.83;1.87;;;21.80;69.80;;;;;;5026259;28;20458;-73
2022/09/09 09:56:41;;;;;;;5.40;1.30;;;21.90;69.60;;;;;;5034689;28;20846;-73
2022/09/09 09:59:22;;;;;;;5.80;1.23;;;21.90;69.50;;;;;;5017758;28;20975;-73
2022/09/09 10:02:20;;;;;;;7.83;1.27;;;21.90;69.40;;;;;;5015615;28;20494;-73
2022/09/09 10:05:02;;;;;;;10.07;2.00;;;21.90;69.20;;;;;;5033130;28;20455;-74
2022/09/09 10:07:33;;;;;;;7.53;1.83;;;21.90;69.20;;;;;;5038629;28;20473;-73
2022/09/09 10:10:01;;;;;;;7.30;2.30;;;21.80;69.20;;;;;;5030595;28;20562;-73
2022/09/09 10:12:45;;;;;;;6.93;1.90;;;21.80;69.20;;;;;;5030457;28;21113;-74
2022/09/09 10:15:31;;;;;;;8.10;1.77;;;21.70;69.30;;;;;;5014980;28;20470;-73
2022/09/09 10:18:14;;;;;;;7.80;1.73;;;21.60;69.50;;;;;;5038394;28;21204;-73
2022/09/09 10:20:50;;;;;;;7.03;1.43;;;21.50;69.80;;;;;;5036513;28;21048;-73
2022/09/09 10:23:34;;;;;;;5.10;1.20;;;21.40;70.00;;;;;;5016292;28;21347;-73
2022/09/09 10:26:23;;;;;;;10.33;1.27;;;21.20;70.50;;;;;;5033178;28;20463;-73
2022/09/09 10:29:10;;;;;;;6.90;1.33;;;20.90;70.10;;;;;;5032475;28;20454;-73
2022/09/09 10:31:49;;;;;;;7.77;1.20;;;20.60;70.00;;;;;;5037448;28;20497;-73
2022/09/09 10:34:32;;;;;;;6.23;1.20;;;20.40;70.50;;;;;;5019430;28;20474;-73
2022/09/09 10:37:00;;;;;;;3.93;0.60;;;20.20;70.90;;;;;;5036394;28;20516;-73
2022/09/09 10:39:37;;;;;;;4.27;1.10;;;20.10;71.30;;;;;;5035709;28;20460;-73
2022/09/09 10:42:14;;;;;;;3.77;0.90;;;20.10;71.50;;;;;;5039525;28;20564;-73
2022/09/09 10:45:10;;;;;;;7.10;0.80;;;20.10;71.80;;;;;;5018027;28;20549;-72
2022/09/09 10:48:01;;;;;;;7.37;2.10;;;20.10;72.10;;;;;;5018172;28;20470;-73
2022/09/09 10:50:53;;;;;;;8.43;0.97;;;20.10;72.10;;;;;;5037167;28;20506;-74
2022/09/09 10:53:42;;;;;;;3.47;0.70;;;20.10;72.20;;;;;;5017358;28;20473;-73
2022/09/09 10:56:13;;;;;;;4.03;0.73;;;20.10;72.50;;;;;;5021307;28;20495;-73
2022/09/09 10:58:48;;;;;;;5.03;0.97;;;20.10;72.60;;;;;;5034016;28;20454;-73
2022/09/09 11:01:23;;;;;;;4.50;0.80;;;20.10;72.90;;;;;;5035136;28;20513;-72
2022/09/09 11:03:55;;;;;;;4.50;0.70;;;20.20;73.20;;;;;;5020827;28;20474;-75
2022/09/09 11:06:32;;;;;;;4.30;1.07;;;20.20;73.20;;;;;;5032760;28;21162;-73
2022/09/09 11:09:03;;;;;;;6.40;0.90;;;20.30;73.30;;;;;;5036670;28;21152;-73
2022/09/09 11:11:37;;;;;;;3.60;1.00;;;20.30;73.50;;;;;;5035146;28;20482;-73
2022/09/09 11:14:13;;;;;;;9.60;1.17;;;20.30;73.70;;;;;;5037105;28;21025;-73
2022/09/09 11:16:49;;;;;;;6.43;1.23;;;20.40;73.90;;;;;;5035151;28;20452;-73
2022/09/09 11:19:23;;;;;;;6.67;1.30;;;20.40;74.00;;;;;;5034126;28;21002;-72
2022/09/09 11:21:53;;;;;;;5.03;1.13;;;20.50;74.20;;;;;;5017296;28;21045;-73
2022/09/09 11:24:26;;;;;;;6.43;1.27;;;20.50;74.10;;;;;;5036592;28;20465;-73
2022/09/09 11:26:59;;;;;;;6.17;1.37;;;20.60;74.30;;;;;;5020942;28;20460;-75
2022/09/09 11:30:00;;;;;;;5.73;1.57;;;20.60;74.60;;;;;;5044140;28;20493;-73
2022/09/09 11:32:53;;;;;;;5.73;1.60;;;20.80;74.80;;;;;;5036986;28;20494;-73
2022/09/09 11:35:32;;;;;;;7.60;1.47;;;20.90;75.10;;;;;;5023007;28;20464;-73
2022/09/09 11:38:27;;;;;;;7.53;1.67;;;21.00;75.10;;;;;;5026414;28;20829;-73
2022/09/09 11:40:59;;;;;;;6.47;1.17;;;21.00;74.80;;;;;;5038093;28;21047;-73
2022/09/09 11:43:32;;;;;;;8.60;1.30;;;21.10;74.80;;;;;;5037206;28;20463;-73
2022/09/09 11:46:03;;;;;;;7.80;1.10;;;21.20;74.80;;;;;;5037809;28;20454;-73
2022/09/09 11:48:36;;;;;;;5.67;1.10;;;21.30;74.90;;;;;;5038617;28;21162;-73
2022/09/09 11:51:07;;;;;;;13.43;1.30;;;21.40;74.80;;;;;;5038505;28;21015;-73
2022/09/09 11:53:52;;;;;;;7.33;1.40;;;21.40;74.70;;;;;;5022193;28;20453;-73
2022/09/09 11:56:29;;;;;;;4.60;1.17;;;21.50;74.50;;;;;;5038350;28;20466;-73
2022/09/09 11:59:01;;;;;;;4.83;1.00;;;21.60;74.20;;;;;;5015902;28;20474;-73
2022/09/09 12:01:38;;;;;;;5.60;1.47;;;21.60;73.90;;;;;;5036474;28;20577;-73
2022/09/09 12:04:28;;;;;;;8.20;1.40;;;21.60;73.50;;;;;;5038356;28;20455;-73
2022/09/09 12:06:59;;;;;;;6.07;1.60;;;21.70;73.40;;;;;;5020482;28;20459;-73
2022/09/09 12:09:48;;;;;;;4.20;1.10;;;21.70;73.30;;;;;;5036897;28;20818;-73
2022/09/09 12:12:31;;;;;;;3.90;1.07;;;21.80;73.20;;;;;;5037012;28;20486;-73
2022/09/09 12:15:20;;;;;;;6.20;1.20;;;21.80;73.10;;;;;;5039388;28;20453;-73
2022/09/09 12:17:50;;;;;;;7.50;1.30;;;21.90;72.90;;;;;;5038998;28;20480;-73
2022/09/09 12:20:22;;;;;;;5.70;1.10;;;21.90;72.70;;;;;;5037884;28;21007;-73
2022/09/09 12:23:23;;;;;;;7.27;1.30;;;22.00;72.50;;;;;;5037230;28;20508;-73
2022/09/09 12:26:06;;;;;;;6.50;1.33;;;22.00;72.20;;;;;;5040153;28;20462;-73
2022/09/09 12:28:45;;;;;;;4.90;1.03;;;22.10;71.80;;;;;;5040531;28;20457;-73
2022/09/09 12:31:18;;;;;;;6.67;1.43;;;22.10;71.60;;;;;;5036868;28;20494;-73
2022/09/09 12:33:48;;;;;;;6.93;1.40;;;22.10;71.40;;;;;;5036777;28;21298;-73
2022/09/09 12:36:20;;;;;;;4.73;1.20;;;22.20;71.10;;;;;;5037856;28;20465;-73
2022/09/09 12:38:50;;;;;;;4.07;1.17;;;22.20;70.80;;;;;;5042654;28;20451;-73
2022/09/09 12:41:23;;;;;;;6.70;1.30;;;22.20;70.50;;;;;;5021337;28;20482;-73
2022/09/09 12:43:52;;;;;;;6.20;1.40;;;22.20;70.30;;;;;;5022749;28;20493;-73
2022/09/09 12:46:27;;;;;;;5.50;1.10;;;22.30;70.20;;;;;;5021056;28;20463;-73
2022/09/09 12:48:56;;;;;;;4.80;1.00;;;22.30;69.90;;;;;;5038159;28;20469;-73
2022/09/09 12:51:32;;;;;;;5.97;1.17;;;22.40;69.80;;;;;;5040664;28;20502;-73
2022/09/09 12:54:01;;;;;;;4.47;1.00;;;22.50;69.20;;;;;;5038118;28;20464;-73
2022/09/09 12:56:32;;;;;;;6.50;1.33;;;22.50;69.00;;;;;;5025403;28;20465;-73
2022/09/09 12:59:01;;;;;;;5.53;0.70;;;22.50;68.50;;;;;;5036183;28;20466;-73
2022/09/09 13:01:31;;;;;;;5.03;1.10;;;22.50;68.10;;;;;;5040879;28;20535;-73
2022/09/09 13:03:59;;;;;;;5.07;1.17;;;22.40;67.90;;;;;;5039437;28;21050;-73
2022/09/09 13:06:30;;;;;;;5.20;1.00;;;22.40;67.90;;;;;;5034059;28;20457;-73
2022/09/09 13:09:00;;;;;;;3.87;1.00;;;22.30;67.80;;;;;;5037898;28;20480;-73
2022/09/09 13:11:32;;;;;;;6.50;1.30;;;22.30;67.80;;;;;;5034112;28;20497;-73
2022/09/09 13:14:01;;;;;;;6.47;1.20;;;22.30;67.90;;;;;;5035678;28;20551;-73
2022/09/09 13:16:31;;;;;;;4.03;0.77;;;22.30;67.70;;;;;;5036292;28;21092;-73
2022/09/09 13:19:07;;;;;;;5.33;1.37;;;22.40;67.20;;;;;;5036636;28;20558;-73